createdAt,value
2018-03-28T12:35:22.182Z,19.00
2018-03-28T12:39:24.837Z,19.50
2018-03-28T12:43:28.388Z,18.40
2018-03-28T12:47:31.150Z,18.30
2018-03-28T12:51:34.700Z,18.10
2018-03-28T12:55:37.453Z,18.10
2018-03-28T12:59:40.125Z,19.50
2018-03-28T13:03:43.556Z,19.60
2018-03-28T13:07:47.049Z,17.80
2018-03-28T13:11:49.729Z,17.70
2018-03-28T13:15:54.353Z,19.20
2018-03-28T13:19:57.035Z,19.10
2018-03-28T13:24:00.574Z,18.40
2018-03-28T13:28:03.241Z,18.40
2018-03-28T13:32:05.967Z,19.00
2018-03-28T13:36:08.720Z,17.40
2018-03-28T13:40:11.431Z,16.90
2018-03-28T13:44:14.175Z,16.10
2018-03-28T13:48:16.937Z,14.50
2018-03-28T13:52:19.657Z,15.40
2018-03-28T13:56:22.415Z,16.20
2018-03-28T14:00:25.085Z,15.40
2018-03-28T14:04:28.611Z,14.90
2018-03-28T14:08:32.377Z,14.80
2018-03-28T14:12:35.114Z,14.60
2018-03-28T14:16:38.581Z,15.10
2018-03-28T14:20:41.425Z,15.10
2018-03-28T14:24:45.094Z,14.60
2018-03-28T14:28:47.800Z,14.60
2018-03-28T14:32:51.383Z,12.90
2018-03-28T14:36:54.116Z,12.90
2018-03-28T14:40:57.441Z,13.10
2018-03-28T14:45:00.833Z,13.30
2018-03-28T14:49:04.394Z,13.40
2018-03-28T14:53:08.059Z,12.90
2018-03-28T14:57:10.741Z,12.90
2018-03-28T15:01:13.438Z,13.00
2018-03-28T15:05:16.368Z,12.90
2018-03-28T15:09:19.233Z,12.90
2018-03-28T15:13:22.957Z,12.70
2018-03-28T15:17:26.545Z,12.80
2018-03-28T15:21:29.279Z,12.80
2018-03-28T15:25:32.113Z,12.80
2018-03-28T15:29:35.594Z,12.70
2018-03-28T15:33:38.404Z,12.70
2018-03-28T15:37:42.001Z,12.90
2018-03-28T15:41:44.755Z,12.90
2018-03-28T15:45:47.595Z,12.70
2018-03-28T15:49:50.583Z,12.80
2018-03-28T15:53:53.459Z,12.60
2018-03-28T15:57:56.645Z,12.70
2018-03-28T16:02:00.131Z,12.70
2018-03-28T16:06:04.855Z,12.60
2018-03-28T16:10:08.478Z,12.50
2018-03-28T16:14:12.039Z,12.20
2018-03-28T16:18:15.507Z,11.80
2018-03-28T16:22:18.642Z,11.80
2018-03-28T16:26:21.373Z,11.80
2018-03-28T16:30:24.152Z,11.60
2018-03-28T16:34:26.987Z,11.50
2018-03-28T16:38:30.564Z,11.40
2018-03-28T16:42:34.125Z,11.20
2018-03-28T16:46:36.845Z,11.20
2018-03-28T16:50:39.565Z,11.20
2018-03-28T16:54:43.140Z,10.60
2018-03-28T16:58:45.853Z,10.60
2018-03-28T17:02:48.602Z,10.30
2018-03-28T17:06:51.300Z,10.20
2018-03-28T17:10:54.058Z,10.00
2018-03-28T17:14:57.656Z,9.70
2018-03-28T17:19:00.511Z,9.70
2018-03-28T17:23:04.329Z,9.50
2018-03-28T17:27:07.212Z,9.50
2018-03-28T17:31:10.311Z,9.40
2018-03-28T17:35:13.800Z,9.20
2018-03-28T17:39:16.706Z,9.20
2018-03-28T17:43:20.189Z,9.00
2018-03-28T17:47:22.923Z,9.00
2018-03-28T17:51:25.640Z,8.90
2018-03-28T17:55:28.481Z,8.80
2018-03-28T17:59:31.337Z,8.70
2018-03-28T18:03:34.076Z,8.70
2018-03-28T18:07:37.636Z,8.70
2018-03-28T18:11:41.247Z,8.60
2018-03-28T18:15:44.739Z,8.60
2018-03-28T18:19:47.522Z,8.50
2018-03-28T18:23:50.385Z,8.50
2018-03-28T18:27:53.642Z,8.40
2018-03-28T18:31:56.454Z,8.30
2018-03-28T18:35:59.163Z,8.20
2018-03-28T18:40:02.846Z,8.00
2018-03-28T18:44:05.869Z,8.00
2018-03-28T18:48:08.610Z,8.00
2018-03-28T18:52:12.275Z,7.90
2018-03-28T18:56:15.269Z,7.90
2018-03-28T19:00:17.948Z,7.90
2018-03-28T19:04:20.824Z,7.80
2018-03-28T19:08:23.686Z,7.70
2018-03-28T19:12:27.202Z,7.40
2018-03-28T19:16:30.691Z,7.30
2018-03-28T19:20:33.495Z,7.30
2018-03-28T19:24:36.290Z,7.20
2018-03-28T19:28:39.155Z,7.00
2018-03-28T19:32:42.030Z,6.90
2018-03-28T19:36:44.767Z,6.80
2018-03-28T19:40:47.480Z,6.80
2018-03-28T19:44:50.212Z,6.80
2018-03-28T19:48:53.117Z,6.80
2018-03-28T19:52:56.058Z,6.80
2018-03-28T19:57:00.350Z,6.80
2018-03-28T20:01:04.103Z,6.80
2018-03-28T20:05:06.812Z,6.80
2018-03-28T20:09:09.819Z,6.80
2018-03-28T20:13:12.541Z,6.80
2018-03-28T20:17:15.314Z,6.80
2018-03-28T20:21:18.145Z,6.70
2018-03-28T20:25:20.868Z,6.70
2018-03-28T20:29:23.568Z,6.60
2018-03-28T20:33:26.383Z,6.60
2018-03-28T20:37:29.094Z,6.60
2018-03-28T20:41:31.992Z,6.60
2018-03-28T20:45:34.692Z,6.50
2018-03-28T20:49:37.415Z,6.50
2018-03-28T20:53:40.933Z,6.50
2018-03-28T20:57:48.278Z,6.50
2018-03-28T21:01:50.990Z,6.50
2018-03-28T21:05:53.842Z,6.50
2018-03-28T21:09:56.577Z,6.50
2018-03-28T21:13:59.370Z,6.50
2018-03-28T21:18:02.175Z,6.40
2018-03-28T21:22:04.912Z,6.50
2018-03-28T21:26:08.477Z,6.40
2018-03-28T21:30:11.982Z,6.30
2018-03-28T21:34:14.730Z,6.30
2018-03-28T21:38:17.494Z,6.30
2018-03-28T21:42:20.363Z,6.30
2018-03-28T21:46:23.227Z,6.30
2018-03-28T21:50:26.758Z,6.40
2018-03-28T21:54:29.485Z,6.30
2018-03-28T21:58:33.051Z,6.30
2018-03-28T22:02:36.537Z,6.30
2018-03-28T22:06:39.244Z,6.30
2018-03-28T22:10:42.108Z,6.30
2018-03-28T22:14:44.812Z,6.30
2018-03-28T22:18:47.554Z,6.30
2018-03-28T22:22:51.033Z,6.10
2018-03-28T22:26:53.823Z,6.10
2018-03-28T22:30:56.539Z,6.20
2018-03-28T22:34:59.428Z,6.20
2018-03-28T22:39:02.152Z,6.10
2018-03-28T22:43:05.830Z,6.10
2018-03-28T22:47:08.523Z,6.10
2018-03-28T22:51:11.255Z,6.10
2018-03-28T22:55:14.066Z,6.10
2018-03-28T22:59:17.580Z,6.10
2018-03-28T23:03:21.056Z,6.10
2018-03-28T23:07:23.916Z,6.10
2018-03-28T23:11:26.639Z,6.10
2018-03-28T23:15:29.500Z,6.10
2018-03-28T23:19:32.246Z,6.10
2018-03-28T23:23:34.997Z,6.10
2018-03-28T23:27:37.812Z,6.10
2018-03-28T23:31:40.614Z,6.10
2018-03-28T23:35:43.314Z,6.00
2018-03-28T23:39:46.138Z,6.00
2018-03-28T23:43:48.835Z,6.00
2018-03-28T23:47:51.789Z,6.00
2018-03-28T23:51:54.486Z,6.00
2018-03-28T23:55:57.288Z,6.00
